Terminal Aerodrome Forecast
Issued by NWS Binghamton, NY

Home | Current Version | Previous Version | Text Only | Print | Product List | Glossary On
Versions: 1 2 3 4 5 6 7 8 9 10 11 12 13 14 15 16 17 18 19
000
FTUS41 KBGM 220800 AAA
TAFBGM
TAF AMD
KBGM 220817Z 2208/2306 30012G18KT P6SM OVC015
      TEMPO 2209/2213 4SM -SHRA OVC007
     FM221600 30012G20KT P6SM BKN025
     FM221900 30014G22KT P6SM BKN035
     FM230000 30010KT P6SM SCT035=

USA.gov is the U.S. government's official web portal to all federal, state and local government web resources and services.